createdAt,value
2022-11-06T00:01:10.723Z,8.90
2022-11-06T00:03:37.945Z,8.80
2022-11-06T00:06:31.431Z,8.80
2022-11-06T00:09:05.179Z,8.80
2022-11-06T00:11:32.243Z,8.90
2022-11-06T00:14:01.087Z,8.80
2022-11-06T00:16:28.716Z,8.80
2022-11-06T00:18:55.749Z,8.80
2022-11-06T00:21:28.086Z,8.70
2022-11-06T00:23:57.231Z,8.70
2022-11-06T00:26:26.113Z,8.70
2022-11-06T00:28:53.614Z,8.60
2022-11-06T00:31:32.413Z,8.50
2022-11-06T00:34:00.809Z,8.50
2022-11-06T00:36:32.501Z,8.50
2022-11-06T00:39:00.285Z,8.50
2022-11-06T00:41:28.229Z,8.50
2022-11-06T00:44:01.143Z,8.50
2022-11-06T00:46:28.512Z,8.50
2022-11-06T00:48:56.331Z,8.60
2022-11-06T00:51:29.626Z,8.60
2022-11-06T00:53:59.789Z,8.70
2022-11-06T00:56:27.522Z,8.70
2022-11-06T00:58:55.212Z,8.70
2022-11-06T01:01:30.035Z,8.70
2022-11-06T01:04:10.360Z,8.80
2022-11-06T01:06:40.389Z,8.80
2022-11-06T01:09:08.023Z,8.80
2022-11-06T01:12:06.761Z,8.70
2022-11-06T01:14:25.935Z,8.70
2022-11-06T01:16:53.131Z,8.70
2022-11-06T01:19:21.643Z,8.70
2022-11-06T01:21:50.298Z,8.70
2022-11-06T01:24:21.023Z,8.70
2022-11-06T01:27:11.948Z,8.70
2022-11-06T01:29:35.295Z,8.70
2022-11-06T01:32:04.485Z,8.70
2022-11-06T01:34:31.456Z,8.70
2022-11-06T01:36:58.324Z,8.70
2022-11-06T01:39:25.187Z,8.70
2022-11-06T01:41:53.704Z,8.60
2022-11-06T01:44:35.820Z,8.60
2022-11-06T01:47:16.837Z,8.60
2022-11-06T01:49:44.325Z,8.50
2022-11-06T01:52:13.739Z,8.60
2022-11-06T01:54:44.160Z,8.60
2022-11-06T01:57:11.698Z,8.50
2022-11-06T02:02:20.820Z,8.50
2022-11-06T02:04:49.515Z,8.40
2022-11-06T02:07:18.027Z,8.40
2022-11-06T02:09:44.963Z,8.30
2022-11-06T02:12:22.299Z,8.30
2022-11-06T02:15:08.700Z,8.20
2022-11-06T02:18:03.451Z,8.20
2022-11-06T02:20:45.935Z,8.10
2022-11-06T02:23:21.922Z,8.10
2022-11-06T02:26:24.307Z,8.10
2022-11-06T02:28:58.215Z,8.10
2022-11-06T02:31:29.301Z,8.10
2022-11-06T02:34:01.398Z,8.10
2022-11-06T02:36:33.234Z,8.10
2022-11-06T02:39:07.603Z,8.00
2022-11-06T02:41:39.239Z,8.10
2022-11-06T02:44:13.851Z,8.00
2022-11-06T02:46:51.899Z,8.10
2022-11-06T02:49:27.388Z,8.00
2022-11-06T02:51:58.570Z,8.10
2022-11-06T02:54:28.956Z,8.20
2022-11-06T02:57:00.246Z,8.20
2022-11-06T02:59:53.488Z,8.30
2022-11-06T03:02:34.420Z,8.30
2022-11-06T03:05:19.663Z,8.40
2022-11-06T03:07:59.307Z,8.30
2022-11-06T03:10:34.717Z,8.30
2022-11-06T03:13:15.042Z,8.30
2022-11-06T03:15:55.592Z,8.20
2022-11-06T03:18:35.457Z,8.10
2022-11-06T03:21:05.741Z,8.10
2022-11-06T03:23:45.675Z,8.10
2022-11-06T03:26:28.179Z,8.00
2022-11-06T03:29:00.147Z,8.00
2022-11-06T03:31:39.323Z,7.90
2022-11-06T03:34:12.488Z,8.00
2022-11-06T03:36:47.408Z,8.00
2022-11-06T03:39:29.571Z,7.90
2022-11-06T03:42:05.366Z,7.80
2022-11-06T03:44:35.440Z,7.70
2022-11-06T03:47:16.779Z,7.70
2022-11-06T03:49:51.115Z,7.60
2022-11-06T03:52:36.371Z,7.60
2022-11-06T03:55:13.480Z,7.60
2022-11-06T03:57:46.672Z,7.70
2022-11-06T04:00:14.919Z,7.60
2022-11-06T04:02:48.325Z,7.60
2022-11-06T04:05:20.458Z,7.50
2022-11-06T04:08:10.089Z,7.50
2022-11-06T04:10:58.383Z,7.50
2022-11-06T04:13:45.936Z,7.40
2022-11-06T04:16:13.731Z,7.40
2022-11-06T04:18:40.684Z,7.40
2022-11-06T04:21:32.754Z,7.50
2022-11-06T04:24:45.156Z,7.50
2022-11-06T04:27:36.865Z,7.70
2022-11-06T04:30:13.889Z,7.80
2022-11-06T04:33:06.285Z,7.80
2022-11-06T04:36:00.615Z,8.00
2022-11-06T04:38:35.905Z,8.00
2022-11-06T04:41:26.157Z,8.00
2022-11-06T04:44:04.495Z,8.00
2022-11-06T04:46:36.956Z,8.10
2022-11-06T04:49:07.077Z,8.10
2022-11-06T04:51:37.409Z,8.10
2022-11-06T04:54:07.089Z,8.20
2022-11-06T04:56:38.013Z,8.20
2022-11-06T04:59:15.017Z,8.30
2022-11-06T05:01:42.069Z,8.30
2022-11-06T05:04:11.003Z,8.30
2022-11-06T05:06:38.067Z,8.30
2022-11-06T05:09:05.006Z,8.30
2022-11-06T05:11:32.138Z,8.30
2022-11-06T05:13:59.124Z,8.40
2022-11-06T05:16:26.040Z,8.40
2022-11-06T05:18:52.946Z,8.30
2022-11-06T05:21:38.343Z,8.30
2022-11-06T05:24:05.992Z,8.20
2022-11-06T05:26:33.128Z,8.10
2022-11-06T05:29:00.022Z,8.10
2022-11-06T05:31:27.761Z,8.10
2022-11-06T05:33:54.800Z,8.00
2022-11-06T05:36:21.731Z,8.00
2022-11-06T05:38:48.751Z,8.00
2022-11-06T05:41:15.679Z,7.90
2022-11-06T05:43:42.887Z,8.00
2022-11-06T05:46:29.624Z,8.00
2022-11-06T05:48:57.667Z,8.00
2022-11-06T05:51:24.589Z,8.00
2022-11-06T05:53:51.545Z,8.00
2022-11-06T05:56:18.424Z,8.00
2022-11-06T05:58:45.326Z,7.90
2022-11-06T06:01:12.772Z,7.90
2022-11-06T06:03:39.727Z,8.00
2022-11-06T06:06:06.799Z,8.00
2022-11-06T06:08:33.725Z,7.90
2022-11-06T06:11:00.671Z,7.90
2022-11-06T06:13:27.678Z,7.90
2022-11-06T06:15:54.546Z,7.90
2022-11-06T06:18:21.497Z,7.80
2022-11-06T06:20:48.376Z,7.80
2022-11-06T06:23:15.289Z,7.80
2022-11-06T06:25:42.142Z,7.80
2022-11-06T06:28:09.092Z,7.80
2022-11-06T06:30:36.018Z,7.80
2022-11-06T06:33:06.750Z,7.80
2022-11-06T06:35:34.004Z,7.90
2022-11-06T06:38:00.942Z,7.80
2022-11-06T06:40:29.737Z,7.90
2022-11-06T06:42:57.499Z,7.90
2022-11-06T06:45:25.094Z,8.00
2022-11-06T06:47:52.445Z,8.00
2022-11-06T06:50:19.497Z,8.00
2022-11-06T06:52:47.377Z,8.00
2022-11-06T06:55:14.394Z,8.00
2022-11-06T06:57:41.365Z,8.00
2022-11-06T07:00:08.907Z,8.00
2022-11-06T07:02:35.836Z,8.00
2022-11-06T07:05:02.753Z,8.10
2022-11-06T07:07:30.011Z,8.10
2022-11-06T07:09:56.904Z,8.10
2022-11-06T07:12:23.850Z,8.20
2022-11-06T07:14:50.825Z,8.20
2022-11-06T07:17:17.668Z,8.20
2022-11-06T07:19:44.554Z,8.20
2022-11-06T07:22:11.417Z,8.20
2022-11-06T07:24:38.308Z,8.20
2022-11-06T07:27:05.374Z,8.30
2022-11-06T07:29:32.287Z,8.30
2022-11-06T07:31:59.791Z,8.30
2022-11-06T07:34:26.890Z,8.40
2022-11-06T07:36:53.746Z,8.50
2022-11-06T07:39:20.692Z,8.50
2022-11-06T07:41:47.565Z,8.50
2022-11-06T07:44:14.545Z,8.50
2022-11-06T07:46:41.428Z,8.60
2022-11-06T07:49:09.761Z,8.60
2022-11-06T07:51:36.610Z,8.60
2022-11-06T07:54:03.563Z,8.70
2022-11-06T07:56:30.512Z,8.70
2022-11-06T07:58:58.276Z,8.70
2022-11-06T08:01:25.264Z,8.80
2022-11-06T08:03:52.264Z,8.80
2022-11-06T08:06:19.154Z,8.80
2022-11-06T08:08:46.352Z,8.90
2022-11-06T08:11:14.414Z,8.90
2022-11-06T08:13:41.583Z,9.00
2022-11-06T08:16:13.895Z,9.00
2022-11-06T08:18:41.342Z,9.00
2022-11-06T08:21:09.035Z,9.00
2022-11-06T08:23:36.627Z,9.00
2022-11-06T08:26:05.739Z,9.10
2022-11-06T08:28:32.930Z,9.10
2022-11-06T08:31:07.222Z,9.10
2022-11-06T08:33:35.199Z,9.10
2022-11-06T08:36:06.455Z,9.10
2022-11-06T08:38:33.750Z,9.10
2022-11-06T08:41:05.766Z,9.10
2022-11-06T08:43:32.705Z,9.10
2022-11-06T08:46:00.162Z,9.00
2022-11-06T08:48:27.638Z,8.90
2022-11-06T08:50:54.594Z,8.80
2022-11-06T08:53:21.597Z,8.80
2022-11-06T08:55:48.604Z,8.80
2022-11-06T08:58:15.727Z,8.90
2022-11-06T09:00:42.966Z,8.90
2022-11-06T09:03:13.371Z,9.10
2022-11-06T09:05:41.887Z,9.20
2022-11-06T09:08:09.867Z,9.40
2022-11-06T09:10:41.365Z,9.50
2022-11-06T09:13:08.799Z,9.60
2022-11-06T09:15:36.690Z,9.80
2022-11-06T09:18:04.113Z,10.00
2022-11-06T09:20:31.248Z,10.10
2022-11-06T09:23:21.083Z,10.20
2022-11-06T09:25:47.939Z,10.30
2022-11-06T09:28:14.856Z,10.40
2022-11-06T09:30:41.700Z,10.60
2022-11-06T09:33:13.512Z,10.90
2022-11-06T09:35:41.540Z,11.10
2022-11-06T09:38:12.028Z,11.40
2022-11-06T09:40:44.300Z,11.70
2022-11-06T09:43:31.830Z,11.90
2022-11-06T09:46:21.049Z,11.90
2022-11-06T09:48:53.256Z,12.20
2022-11-06T09:51:53.171Z,12.20
2022-11-06T09:54:28.743Z,12.30
2022-11-06T09:57:02.250Z,12.40
2022-11-06T09:59:34.827Z,12.40
2022-11-06T10:02:02.411Z,12.50
2022-11-06T10:04:35.828Z,12.50
2022-11-06T10:07:02.833Z,12.60
2022-11-06T10:09:30.570Z,12.70
2022-11-06T10:12:19.421Z,12.80
2022-11-06T10:15:02.418Z,12.90
2022-11-06T10:17:47.399Z,12.80
2022-11-06T10:20:26.582Z,12.80
2022-11-06T10:23:32.820Z,12.90
2022-11-06T10:26:21.941Z,12.90
2022-11-06T10:29:07.940Z,12.50
2022-11-06T10:31:47.462Z,12.60
2022-11-06T10:34:31.622Z,12.80
2022-11-06T10:37:06.202Z,12.90
2022-11-06T10:39:35.484Z,13.10
2022-11-06T10:42:13.351Z,13.20
2022-11-06T10:44:48.463Z,13.50
2022-11-06T10:47:23.723Z,13.90
2022-11-06T10:50:02.033Z,14.10
2022-11-06T10:52:54.408Z,14.30
2022-11-06T10:55:31.640Z,14.50
2022-11-06T10:58:14.137Z,14.40
2022-11-06T11:00:41.809Z,14.00
2022-11-06T11:03:22.944Z,13.50
2022-11-06T11:05:49.861Z,13.40
2022-11-06T11:08:33.260Z,13.10
2022-11-06T11:11:09.147Z,12.80
2022-11-06T11:13:36.059Z,13.30
2022-11-06T11:16:04.139Z,13.70
2022-11-06T11:18:34.451Z,13.70
2022-11-06T11:21:19.925Z,13.40
2022-11-06T11:24:05.668Z,12.90
2022-11-06T11:26:37.123Z,13.00
2022-11-06T11:29:16.577Z,12.90
2022-11-06T11:31:47.525Z,12.90
2022-11-06T11:34:24.277Z,12.70
2022-11-06T11:36:59.366Z,12.60
2022-11-06T11:39:35.508Z,12.70
2022-11-06T11:42:24.220Z,12.90
2022-11-06T11:45:09.936Z,13.00
2022-11-06T11:47:42.649Z,13.00
2022-11-06T11:50:20.022Z,12.80
2022-11-06T11:52:49.347Z,12.70
2022-11-06T11:55:27.436Z,12.70
2022-11-06T11:57:57.762Z,13.30
2022-11-06T12:00:24.833Z,13.50
2022-11-06T12:03:05.215Z,13.30
2022-11-06T12:05:40.746Z,13.10
2022-11-06T12:08:14.504Z,13.00
2022-11-06T12:10:43.635Z,12.80
2022-11-06T12:13:18.284Z,12.80
2022-11-06T12:16:00.437Z,13.10
2022-11-06T12:18:47.083Z,13.10
2022-11-06T12:21:17.989Z,13.20
2022-11-06T12:24:07.881Z,13.50
2022-11-06T12:26:55.406Z,13.90
2022-11-06T12:29:28.149Z,14.40
2022-11-06T12:32:26.664Z,14.90
2022-11-06T12:35:10.120Z,15.00
2022-11-06T12:37:52.811Z,15.00
2022-11-06T12:40:25.346Z,14.80
2022-11-06T12:43:11.477Z,14.90
2022-11-06T12:46:15.696Z,14.50
2022-11-06T12:48:48.523Z,13.90
2022-11-06T12:51:37.013Z,13.90
2022-11-06T12:54:29.772Z,13.90
2022-11-06T12:57:37.424Z,13.50
2022-11-06T13:00:13.782Z,13.30
2022-11-06T13:03:05.663Z,12.80
2022-11-06T13:05:40.147Z,12.60
2022-11-06T13:08:31.462Z,12.60
2022-11-06T13:11:19.803Z,12.70
2022-11-06T13:13:55.720Z,12.70
2022-11-06T13:16:32.622Z,12.80
2022-11-06T13:19:24.828Z,12.80
2022-11-06T13:21:51.724Z,12.80
2022-11-06T13:24:38.105Z,12.70
2022-11-06T13:27:36.144Z,12.70
2022-11-06T13:30:21.484Z,12.70
2022-11-06T13:33:01.246Z,12.40
2022-11-06T13:35:28.882Z,12.10
2022-11-06T13:37:57.023Z,12.00
2022-11-06T13:40:39.208Z,11.90
2022-11-06T13:43:10.243Z,11.80
2022-11-06T13:45:55.905Z,11.80
2022-11-06T13:49:13.509Z,11.90
2022-11-06T13:51:59.179Z,11.90
2022-11-06T13:55:06.744Z,12.00
2022-11-06T13:57:42.700Z,12.00
2022-11-06T14:00:17.387Z,12.00
2022-11-06T14:02:50.523Z,11.90
2022-11-06T14:05:42.788Z,11.80
2022-11-06T14:08:41.982Z,11.70
2022-11-06T14:11:21.649Z,11.70
2022-11-06T14:14:11.390Z,11.70
2022-11-06T14:16:45.571Z,11.70
2022-11-06T14:19:23.538Z,11.60
2022-11-06T14:21:52.853Z,11.60
2022-11-06T14:24:19.693Z,11.50
2022-11-06T14:26:48.674Z,11.50
2022-11-06T14:29:27.981Z,11.50
2022-11-06T14:32:32.103Z,11.50
2022-11-06T14:35:33.820Z,11.40
2022-11-06T14:38:11.426Z,11.40
2022-11-06T14:40:39.543Z,11.40
2022-11-06T14:43:20.492Z,11.40
2022-11-06T14:46:22.795Z,11.30
2022-11-06T14:48:55.611Z,11.40
2022-11-06T14:51:27.861Z,11.40
2022-11-06T14:53:59.381Z,11.30
2022-11-06T14:56:32.372Z,11.30
2022-11-06T14:59:08.984Z,11.20
2022-11-06T15:01:37.436Z,11.10
2022-11-06T15:04:19.391Z,11.10
2022-11-06T15:06:49.401Z,11.20
2022-11-06T15:09:25.129Z,11.10
2022-11-06T15:11:54.719Z,11.00
2022-11-06T15:14:21.565Z,11.00
2022-11-06T15:17:02.939Z,11.00
2022-11-06T15:19:51.232Z,11.00
2022-11-06T15:22:40.236Z,10.90
2022-11-06T15:25:16.307Z,11.00
2022-11-06T15:28:00.228Z,11.00
2022-11-06T15:30:29.482Z,11.00
2022-11-06T15:32:58.112Z,10.90
2022-11-06T15:35:28.528Z,10.90
2022-11-06T15:38:12.076Z,11.00
2022-11-06T15:40:40.864Z,11.00
2022-11-06T15:43:30.370Z,11.00
2022-11-06T15:46:11.073Z,11.00
2022-11-06T15:48:38.747Z,11.00
2022-11-06T15:51:25.247Z,10.90
2022-11-06T15:53:52.295Z,10.90
2022-11-06T15:56:24.325Z,10.80
2022-11-06T15:59:11.577Z,10.80
2022-11-06T16:01:39.615Z,10.70
2022-11-06T16:04:15.754Z,10.70
2022-11-06T16:06:44.416Z,10.70
2022-11-06T16:09:17.121Z,10.70
2022-11-06T16:11:46.364Z,10.70
2022-11-06T16:14:16.609Z,10.60
2022-11-06T16:16:48.140Z,10.60
2022-11-06T16:19:30.091Z,10.60
2022-11-06T16:22:09.020Z,10.60
2022-11-06T16:24:50.067Z,10.70
2022-11-06T16:27:17.509Z,10.60
2022-11-06T16:29:49.395Z,10.60
2022-11-06T16:32:19.874Z,10.60
2022-11-06T16:34:48.079Z,10.60
2022-11-06T16:37:17.905Z,10.60
2022-11-06T16:39:52.877Z,10.60
2022-11-06T16:42:22.981Z,10.60
2022-11-06T16:45:03.261Z,10.60
2022-11-06T16:47:30.239Z,10.60
2022-11-06T16:49:58.307Z,10.50
2022-11-06T16:52:43.063Z,10.60
2022-11-06T16:55:17.145Z,10.60
2022-11-06T16:57:58.108Z,10.60
2022-11-06T17:00:31.069Z,10.50
2022-11-06T17:03:02.306Z,10.50
2022-11-06T17:05:34.254Z,10.50
2022-11-06T17:08:19.226Z,10.40
2022-11-06T17:10:59.740Z,10.40
2022-11-06T17:13:31.260Z,10.40
2022-11-06T17:16:01.036Z,10.40
2022-11-06T17:18:39.278Z,10.40
2022-11-06T17:21:11.762Z,10.40
2022-11-06T17:23:39.107Z,10.40
2022-11-06T17:26:13.082Z,10.30
2022-11-06T17:28:40.224Z,10.30
2022-11-06T17:31:11.013Z,10.30
2022-11-06T17:33:37.884Z,10.30
2022-11-06T17:36:05.585Z,10.30
2022-11-06T17:38:32.472Z,10.40
2022-11-06T17:40:59.370Z,10.30
2022-11-06T17:43:26.268Z,10.30
2022-11-06T17:45:53.302Z,10.40
2022-11-06T17:48:20.200Z,10.30
2022-11-06T17:51:05.538Z,10.20
2022-11-06T17:53:32.377Z,10.30
2022-11-06T17:56:03.752Z,10.30
2022-11-06T17:58:30.743Z,10.40
2022-11-06T18:01:06.198Z,10.30
2022-11-06T18:03:36.595Z,10.30
2022-11-06T18:06:04.277Z,10.30
2022-11-06T18:08:31.124Z,10.40
2022-11-06T18:10:58.115Z,10.40
2022-11-06T18:13:25.032Z,10.40
2022-11-06T18:15:53.512Z,10.40
2022-11-06T18:18:20.804Z,10.30
2022-11-06T18:20:48.274Z,10.30
2022-11-06T18:23:15.930Z,10.20
2022-11-06T18:25:43.548Z,10.10
2022-11-06T18:28:10.607Z,9.90
2022-11-06T18:30:38.849Z,9.80
2022-11-06T18:33:05.735Z,9.70
2022-11-06T18:35:32.659Z,9.50
2022-11-06T18:37:59.523Z,9.40
2022-11-06T18:40:26.411Z,9.20
2022-11-06T18:42:54.994Z,9.10
2022-11-06T18:45:21.931Z,9.00
2022-11-06T18:47:48.954Z,8.90
2022-11-06T18:50:16.272Z,8.90
2022-11-06T18:52:57.587Z,8.80
2022-11-06T18:55:25.321Z,8.80
2022-11-06T18:57:52.768Z,8.80
2022-11-06T19:00:20.080Z,8.80
2022-11-06T19:02:47.212Z,8.70
2022-11-06T19:05:14.328Z,8.70
2022-11-06T19:07:42.648Z,8.60
2022-11-06T19:10:14.229Z,8.70
2022-11-06T19:12:41.911Z,8.70
2022-11-06T19:15:09.300Z,8.60
2022-11-06T19:17:36.219Z,8.60
2022-11-06T19:20:04.168Z,8.50
2022-11-06T19:22:31.739Z,8.50
2022-11-06T19:24:59.071Z,8.50
2022-11-06T19:27:25.951Z,8.40
2022-11-06T19:29:52.880Z,8.30
2022-11-06T19:32:19.722Z,8.30
2022-11-06T19:34:47.117Z,8.30
2022-11-06T19:37:13.974Z,8.30
2022-11-06T19:39:40.919Z,8.20
2022-11-06T19:42:07.798Z,8.20
2022-11-06T19:44:34.817Z,8.30
2022-11-06T19:47:01.723Z,8.20
2022-11-06T19:49:29.226Z,8.20
2022-11-06T19:51:56.139Z,8.30
2022-11-06T19:54:43.059Z,8.20
2022-11-06T19:57:29.220Z,8.20
2022-11-06T19:59:56.813Z,8.20
2022-11-06T20:02:23.876Z,8.20
2022-11-06T20:04:50.986Z,8.10
2022-11-06T20:07:17.978Z,8.20
2022-11-06T20:09:45.057Z,8.20
2022-11-06T20:12:14.933Z,8.30
2022-11-06T20:14:42.310Z,8.30
2022-11-06T20:17:09.344Z,8.30
2022-11-06T20:19:36.301Z,8.40
2022-11-06T20:22:03.390Z,8.40
2022-11-06T20:24:30.355Z,8.50
2022-11-06T20:26:57.218Z,8.50
2022-11-06T20:29:24.210Z,8.60
2022-11-06T20:31:51.096Z,8.70
2022-11-06T20:34:17.954Z,8.80
2022-11-06T20:36:44.812Z,8.80
2022-11-06T20:39:11.732Z,8.90
2022-11-06T20:41:38.575Z,8.90
2022-11-06T20:44:05.860Z,8.90
2022-11-06T20:46:32.752Z,8.90
2022-11-06T20:48:59.663Z,9.00
2022-11-06T20:51:29.320Z,9.10
2022-11-06T20:53:56.583Z,9.00
2022-11-06T20:56:26.741Z,9.00
2022-11-06T20:58:55.680Z,9.00
2022-11-06T21:01:27.921Z,9.00
2022-11-06T21:03:56.946Z,9.10
2022-11-06T21:06:24.805Z,9.00
2022-11-06T21:08:52.209Z,9.10
2022-11-06T21:11:21.745Z,9.20
2022-11-06T21:13:51.901Z,9.30
2022-11-06T21:16:24.605Z,9.30
2022-11-06T21:18:52.115Z,9.40
2022-11-06T21:21:22.442Z,9.30
2022-11-06T21:23:50.544Z,9.40
2022-11-06T21:26:22.291Z,9.40
2022-11-06T21:28:50.192Z,9.40
2022-11-06T21:31:23.193Z,9.30
2022-11-06T21:33:51.916Z,9.30
2022-11-06T21:36:30.814Z,9.40
2022-11-06T21:39:00.566Z,9.50
2022-11-06T21:41:29.536Z,9.60
2022-11-06T21:43:57.621Z,9.70
2022-11-06T21:46:24.676Z,9.70
2022-11-06T21:48:52.444Z,9.80
2022-11-06T21:51:22.753Z,9.80
2022-11-06T21:54:09.309Z,9.80
2022-11-06T21:56:38.260Z,9.80
2022-11-06T21:59:08.316Z,9.80
2022-11-06T22:01:35.718Z,9.80
2022-11-06T22:04:02.807Z,9.90
2022-11-06T22:06:29.945Z,9.80
2022-11-06T22:08:59.351Z,9.90
2022-11-06T22:11:27.876Z,9.90
2022-11-06T22:13:57.022Z,9.90
2022-11-06T22:16:36.468Z,9.90
2022-11-06T22:19:06.968Z,9.90
2022-11-06T22:21:35.675Z,10.00
2022-11-06T22:24:03.140Z,10.00
2022-11-06T22:26:32.917Z,10.00
2022-11-06T22:29:02.838Z,10.10
2022-11-06T22:31:30.243Z,10.10
2022-11-06T22:33:57.500Z,10.10
2022-11-06T22:36:25.294Z,10.20
2022-11-06T22:38:52.932Z,10.20
2022-11-06T22:41:23.773Z,10.10
2022-11-06T22:43:51.881Z,10.10
2022-11-06T22:46:22.382Z,10.10
2022-11-06T22:48:51.258Z,10.10
2022-11-06T22:51:20.285Z,10.10
2022-11-06T22:53:47.440Z,10.10
2022-11-06T22:56:14.512Z,10.10
2022-11-06T22:58:41.967Z,10.10
2022-11-06T23:01:10.365Z,10.10
2022-11-06T23:03:38.133Z,10.10
2022-11-06T23:06:07.588Z,10.10
2022-11-06T23:08:36.176Z,10.10
2022-11-06T23:11:08.577Z,10.10
2022-11-06T23:13:35.658Z,10.10
2022-11-06T23:16:10.150Z,10.20
2022-11-06T23:18:37.462Z,10.20
2022-11-06T23:21:14.314Z,10.20
2022-11-06T23:23:42.298Z,10.20
2022-11-06T23:26:19.454Z,10.30
2022-11-06T23:28:46.782Z,10.20
2022-11-06T23:31:15.489Z,10.30
2022-11-06T23:33:43.662Z,10.40
2022-11-06T23:36:12.974Z,10.30
2022-11-06T23:38:39.970Z,10.30
2022-11-06T23:41:33.792Z,10.30
2022-11-06T23:44:01.704Z,10.40
2022-11-06T23:46:31.756Z,10.40
2022-11-06T23:48:58.994Z,10.50
2022-11-06T23:51:26.899Z,10.50
2022-11-06T23:53:54.470Z,10.50
2022-11-06T23:56:21.463Z,10.50
2022-11-06T23:58:48.382Z,10.50
